sensor_id;sensor_type;location;lat;lon;timestamp;P1;durP1;ratioP1;P2;durP2;ratioP2
85980;SDS011;76553;50.982;8.258;2024-03-29T00:00:33;3.38;;;1.17;;
85980;SDS011;76553;50.982;8.258;2024-03-29T00:02:59;4.25;;;0.68;;
85980;SDS011;76553;50.982;8.258;2024-03-29T00:05:24;2.08;;;0.50;;
85980;SDS011;76553;50.982;8.258;2024-03-29T00:07:50;1.57;;;0.40;;
85980;SDS011;76553;50.982;8.258;2024-03-29T00:10:15;1.43;;;0.40;;
85980;SDS011;76553;50.982;8.258;2024-03-29T00:12:40;1.63;;;0.40;;
85980;SDS011;76553;50.982;8.258;2024-03-29T00:15:06;1.27;;;0.50;;
85980;SDS011;76553;50.982;8.258;2024-03-29T00:17:32;1.38;;;0.40;;
85980;SDS011;76553;50.982;8.258;2024-03-29T00:19:57;1.37;;;0.40;;
85980;SDS011;76553;50.982;8.258;2024-03-29T00:22:23;2.40;;;0.30;;
85980;SDS011;76553;50.982;8.258;2024-03-29T00:24:48;3.67;;;0.50;;
85980;SDS011;76553;50.982;8.258;2024-03-29T00:27:13;2.07;;;0.40;;
85980;SDS011;76553;50.982;8.258;2024-03-29T00:29:38;1.67;;;0.30;;
85980;SDS011;76553;50.982;8.258;2024-03-29T00:32:04;1.97;;;0.30;;
85980;SDS011;76553;50.982;8.258;2024-03-29T00:34:29;1.27;;;0.30;;
85980;SDS011;76553;50.982;8.258;2024-03-29T00:36:54;3.03;;;0.47;;
85980;SDS011;76553;50.982;8.258;2024-03-29T00:39:20;0.57;;;0.20;;
85980;SDS011;76553;50.982;8.258;2024-03-29T00:41:45;0.90;;;0.22;;
85980;SDS011;76553;50.982;8.258;2024-03-29T00:44:10;1.30;;;0.20;;
85980;SDS011;76553;50.982;8.258;2024-03-29T00:46:36;1.30;;;0.37;;
85980;SDS011;76553;50.982;8.258;2024-03-29T00:49:01;0.50;;;0.27;;
85980;SDS011;76553;50.982;8.258;2024-03-29T00:51:26;0.87;;;0.20;;
85980;SDS011;76553;50.982;8.258;2024-03-29T00:53:51;1.67;;;0.50;;
85980;SDS011;76553;50.982;8.258;2024-03-29T00:56:19;2.97;;;0.52;;
85980;SDS011;76553;50.982;8.258;2024-03-29T00:58:44;1.42;;;0.30;;
85980;SDS011;76553;50.982;8.258;2024-03-29T01:01:10;0.95;;;0.40;;
85980;SDS011;76553;50.982;8.258;2024-03-29T01:03:35;1.40;;;0.57;;
85980;SDS011;76553;50.982;8.258;2024-03-29T01:06:00;1.23;;;0.40;;
85980;SDS011;76553;50.982;8.258;2024-03-29T01:08:25;0.87;;;0.30;;
85980;SDS011;76553;50.982;8.258;2024-03-29T01:10:51;3.10;;;0.43;;
85980;SDS011;76553;50.982;8.258;2024-03-29T01:13:16;0.20;;;0.10;;
85980;SDS011;76553;50.982;8.258;2024-03-29T01:15:41;1.10;;;0.50;;
85980;SDS011;76553;50.982;8.258;2024-03-29T01:18:07;0.20;;;0.07;;
85980;SDS011;76553;50.982;8.258;2024-03-29T01:20:32;0.60;;;0.20;;
85980;SDS011;76553;50.982;8.258;2024-03-29T01:22:57;1.67;;;0.30;;
85980;SDS011;76553;50.982;8.258;2024-03-29T01:25:22;1.60;;;0.30;;
85980;SDS011;76553;50.982;8.258;2024-03-29T01:27:49;0.93;;;0.30;;
85980;SDS011;76553;50.982;8.258;2024-03-29T01:30:14;2.63;;;0.63;;
85980;SDS011;76553;50.982;8.258;2024-03-29T01:32:40;3.55;;;0.60;;
85980;SDS011;76553;50.982;8.258;2024-03-29T01:35:05;1.60;;;0.50;;
85980;SDS011;76553;50.982;8.258;2024-03-29T01:37:30;0.73;;;0.32;;
85980;SDS011;76553;50.982;8.258;2024-03-29T01:39:56;2.15;;;0.50;;
85980;SDS011;76553;50.982;8.258;2024-03-29T01:42:21;2.92;;;0.50;;
85980;SDS011;76553;50.982;8.258;2024-03-29T01:44:47;2.00;;;0.50;;
85980;SDS011;76553;50.982;8.258;2024-03-29T01:47:12;4.20;;;0.57;;
85980;SDS011;76553;50.982;8.258;2024-03-29T01:49:38;4.95;;;0.65;;
85980;SDS011;76553;50.982;8.258;2024-03-29T01:52:04;2.40;;;0.60;;
85980;SDS011;76553;50.982;8.258;2024-03-29T01:54:31;1.88;;;0.65;;
85980;SDS011;76553;50.982;8.258;2024-03-29T01:56:59;2.88;;;0.88;;
85980;SDS011;76553;50.982;8.258;2024-03-29T01:59:25;2.45;;;0.70;;
85980;SDS011;76553;50.982;8.258;2024-03-29T02:01:52;3.38;;;0.55;;
85980;SDS011;76553;50.982;8.258;2024-03-29T02:04:17;2.40;;;0.40;;
85980;SDS011;76553;50.982;8.258;2024-03-29T02:06:43;1.38;;;0.43;;
85980;SDS011;76553;50.982;8.258;2024-03-29T02:09:09;1.38;;;0.60;;
85980;SDS011;76553;50.982;8.258;2024-03-29T02:11:35;2.03;;;0.70;;
85980;SDS011;76553;50.982;8.258;2024-03-29T02:14:00;1.27;;;0.43;;
85980;SDS011;76553;50.982;8.258;2024-03-29T02:16:26;1.75;;;0.30;;
85980;SDS011;76553;50.982;8.258;2024-03-29T02:18:51;1.65;;;0.40;;
85980;SDS011;76553;50.982;8.258;2024-03-29T02:21:17;2.90;;;0.55;;
85980;SDS011;76553;50.982;8.258;2024-03-29T02:23:46;0.97;;;0.30;;
85980;SDS011;76553;50.982;8.258;2024-03-29T02:26:12;2.80;;;0.30;;
85980;SDS011;76553;50.982;8.258;2024-03-29T02:28:38;2.50;;;0.55;;
85980;SDS011;76553;50.982;8.258;2024-03-29T02:31:04;3.47;;;1.20;;
85980;SDS011;76553;50.982;8.258;2024-03-29T02:33:29;1.98;;;0.40;;
85980;SDS011;76553;50.982;8.258;2024-03-29T02:35:55;1.27;;;0.20;;
85980;SDS011;76553;50.982;8.258;2024-03-29T02:38:20;1.63;;;0.30;;
85980;SDS011;76553;50.982;8.258;2024-03-29T02:40:45;1.35;;;0.45;;
85980;SDS011;76553;50.982;8.258;2024-03-29T02:43:10;1.80;;;0.20;;
85980;SDS011;76553;50.982;8.258;2024-03-29T02:45:36;0.70;;;0.20;;
85980;SDS011;76553;50.982;8.258;2024-03-29T02:48:01;0.50;;;0.20;;
85980;SDS011;76553;50.982;8.258;2024-03-29T02:50:27;0.57;;;0.30;;
85980;SDS011;76553;50.982;8.258;2024-03-29T02:52:52;0.88;;;0.20;;
85980;SDS011;76553;50.982;8.258;2024-03-29T02:55:17;2.90;;;0.40;;
85980;SDS011;76553;50.982;8.258;2024-03-29T02:57:43;2.93;;;0.80;;
85980;SDS011;76553;50.982;8.258;2024-03-29T03:00:08;4.37;;;1.27;;
85980;SDS011;76553;50.982;8.258;2024-03-29T03:02:37;2.65;;;0.50;;
85980;SDS011;76553;50.982;8.258;2024-03-29T03:05:04;3.35;;;0.50;;
85980;SDS011;76553;50.982;8.258;2024-03-29T03:07:30;3.03;;;0.50;;
85980;SDS011;76553;50.982;8.258;2024-03-29T03:10:13;1.17;;;0.40;;
85980;SDS011;76553;50.982;8.258;2024-03-29T03:12:57;1.58;;;0.50;;
85980;SDS011;76553;50.982;8.258;2024-03-29T03:15:23;2.00;;;0.40;;
85980;SDS011;76553;50.982;8.258;2024-03-29T03:17:48;2.17;;;0.27;;
85980;SDS011;76553;50.982;8.258;2024-03-29T03:20:13;3.57;;;0.50;;
85980;SDS011;76553;50.982;8.258;2024-03-29T03:22:40;2.30;;;0.40;;
85980;SDS011;76553;50.982;8.258;2024-03-29T03:25:06;2.78;;;0.35;;
85980;SDS011;76553;50.982;8.258;2024-03-29T03:27:31;1.20;;;0.60;;
85980;SDS011;76553;50.982;8.258;2024-03-29T03:29:56;1.03;;;0.30;;
85980;SDS011;76553;50.982;8.258;2024-03-29T03:32:22;1.80;;;0.40;;
85980;SDS011;76553;50.982;8.258;2024-03-29T03:34:47;2.83;;;0.60;;
85980;SDS011;76553;50.982;8.258;2024-03-29T03:37:12;2.50;;;0.40;;
85980;SDS011;76553;50.982;8.258;2024-03-29T03:39:37;2.00;;;0.60;;
85980;SDS011;76553;50.982;8.258;2024-03-29T03:42:03;1.50;;;0.40;;
85980;SDS011;76553;50.982;8.258;2024-03-29T03:44:28;2.03;;;0.57;;
85980;SDS011;76553;50.982;8.258;2024-03-29T03:46:54;2.00;;;1.20;;
85980;SDS011;76553;50.982;8.258;2024-03-29T03:49:20;1.55;;;0.60;;
85980;SDS011;76553;50.982;8.258;2024-03-29T03:51:45;2.00;;;0.70;;
85980;SDS011;76553;50.982;8.258;2024-03-29T03:54:10;1.83;;;0.70;;
85980;SDS011;76553;50.982;8.258;2024-03-29T03:56:36;1.60;;;0.53;;
85980;SDS011;76553;50.982;8.258;2024-03-29T03:59:01;1.83;;;0.50;;
85980;SDS011;76553;50.982;8.258;2024-03-29T04:01:26;1.87;;;0.60;;
85980;SDS011;76553;50.982;8.258;2024-03-29T04:03:52;1.83;;;0.73;;
85980;SDS011;76553;50.982;8.258;2024-03-29T04:06:17;1.13;;;0.47;;
85980;SDS011;76553;50.982;8.258;2024-03-29T04:08:45;3.23;;;0.60;;
85980;SDS011;76553;50.982;8.258;2024-03-29T04:11:11;2.55;;;0.55;;
85980;SDS011;76553;50.982;8.258;2024-03-29T04:13:36;2.37;;;0.63;;
85980;SDS011;76553;50.982;8.258;2024-03-29T04:18:30;2.20;;;0.60;;
85980;SDS011;76553;50.982;8.258;2024-03-29T04:20:56;3.70;;;0.90;;
85980;SDS011;76553;50.982;8.258;2024-03-29T04:23:25;2.10;;;0.60;;
85980;SDS011;76553;50.982;8.258;2024-03-29T04:25:53;2.50;;;0.55;;
85980;SDS011;76553;50.982;8.258;2024-03-29T04:28:23;1.65;;;1.15;;
85980;SDS011;76553;50.982;8.258;2024-03-29T04:33:21;1.75;;;0.60;;
85980;SDS011;76553;50.982;8.258;2024-03-29T04:35:54;4.90;;;0.70;;
85980;SDS011;76553;50.982;8.258;2024-03-29T04:40:53;1.77;;;0.50;;
85980;SDS011;76553;50.982;8.258;2024-03-29T04:43:23;3.42;;;0.70;;
85980;SDS011;76553;50.982;8.258;2024-03-29T04:45:50;2.55;;;0.60;;
85980;SDS011;76553;50.982;8.258;2024-03-29T04:48:26;2.63;;;0.68;;
85980;SDS011;76553;50.982;8.258;2024-03-29T04:50:51;2.03;;;0.70;;
85980;SDS011;76553;50.982;8.258;2024-03-29T04:53:16;1.53;;;0.30;;
85980;SDS011;76553;50.982;8.258;2024-03-29T04:55:41;1.77;;;0.53;;
85980;SDS011;76553;50.982;8.258;2024-03-29T04:58:07;2.95;;;0.70;;
85980;SDS011;76553;50.982;8.258;2024-03-29T05:00:32;3.40;;;0.60;;
85980;SDS011;76553;50.982;8.258;2024-03-29T05:02:57;2.97;;;0.70;;
85980;SDS011;76553;50.982;8.258;2024-03-29T05:05:23;1.53;;;0.70;;
85980;SDS011;76553;50.982;8.258;2024-03-29T05:07:48;2.27;;;0.40;;
85980;SDS011;76553;50.982;8.258;2024-03-29T05:10:13;2.03;;;0.73;;
85980;SDS011;76553;50.982;8.258;2024-03-29T05:12:40;2.50;;;0.70;;
85980;SDS011;76553;50.982;8.258;2024-03-29T05:15:06;2.92;;;0.60;;
85980;SDS011;76553;50.982;8.258;2024-03-29T05:17:31;2.88;;;0.77;;
85980;SDS011;76553;50.982;8.258;2024-03-29T05:19:57;0.93;;;0.30;;
85980;SDS011;76553;50.982;8.258;2024-03-29T05:22:22;1.23;;;0.50;;
85980;SDS011;76553;50.982;8.258;2024-03-29T05:24:47;3.17;;;0.60;;
85980;SDS011;76553;50.982;8.258;2024-03-29T05:27:13;0.83;;;0.50;;
85980;SDS011;76553;50.982;8.258;2024-03-29T05:29:38;2.75;;;0.70;;
85980;SDS011;76553;50.982;8.258;2024-03-29T05:32:04;1.80;;;0.80;;
85980;SDS011;76553;50.982;8.258;2024-03-29T05:34:30;1.67;;;0.70;;
85980;SDS011;76553;50.982;8.258;2024-03-29T05:36:55;2.97;;;0.73;;
85980;SDS011;76553;50.982;8.258;2024-03-29T05:39:20;1.43;;;0.53;;
85980;SDS011;76553;50.982;8.258;2024-03-29T05:41:46;3.10;;;0.70;;
85980;SDS011;76553;50.982;8.258;2024-03-29T05:44:11;3.17;;;0.80;;
85980;SDS011;76553;50.982;8.258;2024-03-29T05:46:36;2.83;;;0.73;;
85980;SDS011;76553;50.982;8.258;2024-03-29T05:49:02;1.60;;;0.50;;
85980;SDS011;76553;50.982;8.258;2024-03-29T05:51:28;2.33;;;0.80;;
85980;SDS011;76553;50.982;8.258;2024-03-29T05:53:53;1.43;;;0.63;;
85980;SDS011;76553;50.982;8.258;2024-03-29T05:56:18;1.87;;;0.87;;
85980;SDS011;76553;50.982;8.258;2024-03-29T05:58:43;1.90;;;0.70;;
85980;SDS011;76553;50.982;8.258;2024-03-29T06:01:10;1.67;;;0.80;;
85980;SDS011;76553;50.982;8.258;2024-03-29T06:03:35;3.53;;;0.70;;
85980;SDS011;76553;50.982;8.258;2024-03-29T06:06:00;2.37;;;0.50;;
85980;SDS011;76553;50.982;8.258;2024-03-29T06:08:26;1.37;;;0.57;;
85980;SDS011;76553;50.982;8.258;2024-03-29T06:10:52;2.53;;;0.60;;
85980;SDS011;76553;50.982;8.258;2024-03-29T06:13:17;4.20;;;0.95;;
85980;SDS011;76553;50.982;8.258;2024-03-29T06:15:54;4.22;;;1.50;;
85980;SDS011;76553;50.982;8.258;2024-03-29T06:18:38;2.67;;;0.70;;
85980;SDS011;76553;50.982;8.258;2024-03-29T06:21:03;1.17;;;0.50;;
85980;SDS011;76553;50.982;8.258;2024-03-29T06:23:30;1.58;;;0.68;;
85980;SDS011;76553;50.982;8.258;2024-03-29T06:25:55;3.80;;;0.63;;
85980;SDS011;76553;50.982;8.258;2024-03-29T06:28:21;1.63;;;0.80;;
85980;SDS011;76553;50.982;8.258;2024-03-29T06:30:46;2.70;;;0.60;;
85980;SDS011;76553;50.982;8.258;2024-03-29T06:33:11;1.90;;;0.70;;
85980;SDS011;76553;50.982;8.258;2024-03-29T06:35:36;3.53;;;0.80;;
85980;SDS011;76553;50.982;8.258;2024-03-29T06:38:02;2.75;;;0.80;;
85980;SDS011;76553;50.982;8.258;2024-03-29T06:40:27;1.27;;;0.60;;
85980;SDS011;76553;50.982;8.258;2024-03-29T06:42:53;2.47;;;0.80;;
85980;SDS011;76553;50.982;8.258;2024-03-29T06:45:21;1.33;;;0.60;;
85980;SDS011;76553;50.982;8.258;2024-03-29T06:47:46;2.78;;;0.60;;
85980;SDS011;76553;50.982;8.258;2024-03-29T06:50:11;1.33;;;0.60;;
85980;SDS011;76553;50.982;8.258;2024-03-29T06:52:37;1.90;;;0.70;;
85980;SDS011;76553;50.982;8.258;2024-03-29T06:55:02;2.63;;;0.80;;
85980;SDS011;76553;50.982;8.258;2024-03-29T06:57:28;3.33;;;0.75;;
85980;SDS011;76553;50.982;8.258;2024-03-29T06:59:56;3.80;;;0.60;;
85980;SDS011;76553;50.982;8.258;2024-03-29T07:02:21;3.50;;;0.90;;
85980;SDS011;76553;50.982;8.258;2024-03-29T07:04:46;2.37;;;0.80;;
85980;SDS011;76553;50.982;8.258;2024-03-29T07:07:12;1.10;;;0.60;;
85980;SDS011;76553;50.982;8.258;2024-03-29T07:09:37;2.00;;;0.80;;
85980;SDS011;76553;50.982;8.258;2024-03-29T07:12:02;1.73;;;0.80;;
85980;SDS011;76553;50.982;8.258;2024-03-29T07:14:28;1.98;;;0.68;;
85980;SDS011;76553;50.982;8.258;2024-03-29T07:16:54;2.78;;;0.80;;
85980;SDS011;76553;50.982;8.258;2024-03-29T07:19:20;2.03;;;1.00;;
85980;SDS011;76553;50.982;8.258;2024-03-29T07:21:46;1.75;;;0.90;;
85980;SDS011;76553;50.982;8.258;2024-03-29T07:24:12;2.92;;;1.08;;
85980;SDS011;76553;50.982;8.258;2024-03-29T07:26:37;2.20;;;0.98;;
85980;SDS011;76553;50.982;8.258;2024-03-29T07:29:03;2.17;;;0.85;;
85980;SDS011;76553;50.982;8.258;2024-03-29T07:31:30;2.15;;;1.00;;
85980;SDS011;76553;50.982;8.258;2024-03-29T07:33:55;4.72;;;0.82;;
85980;SDS011;76553;50.982;8.258;2024-03-29T07:36:21;5.70;;;1.10;;
85980;SDS011;76553;50.982;8.258;2024-03-29T07:38:48;4.60;;;0.70;;
85980;SDS011;76553;50.982;8.258;2024-03-29T07:41:13;2.83;;;1.23;;
85980;SDS011;76553;50.982;8.258;2024-03-29T07:43:39;1.80;;;0.70;;
85980;SDS011;76553;50.982;8.258;2024-03-29T07:46:05;3.25;;;1.10;;
85980;SDS011;76553;50.982;8.258;2024-03-29T07:48:33;2.10;;;0.80;;
85980;SDS011;76553;50.982;8.258;2024-03-29T07:50:59;2.13;;;1.00;;
85980;SDS011;76553;50.982;8.258;2024-03-29T07:53:24;2.83;;;0.77;;
85980;SDS011;76553;50.982;8.258;2024-03-29T07:55:50;1.53;;;0.73;;
85980;SDS011;76553;50.982;8.258;2024-03-29T07:58:15;1.40;;;0.80;;
85980;SDS011;76553;50.982;8.258;2024-03-29T08:00:41;1.40;;;0.68;;
85980;SDS011;76553;50.982;8.258;2024-03-29T08:03:07;3.30;;;1.10;;
85980;SDS011;76553;50.982;8.258;2024-03-29T08:05:33;1.98;;;1.00;;
85980;SDS011;76553;50.982;8.258;2024-03-29T08:07:58;3.00;;;0.80;;
85980;SDS011;76553;50.982;8.258;2024-03-29T08:10:24;1.83;;;0.70;;
85980;SDS011;76553;50.982;8.258;2024-03-29T08:12:49;2.77;;;1.20;;
85980;SDS011;76553;50.982;8.258;2024-03-29T08:15:14;1.92;;;0.90;;
85980;SDS011;76553;50.982;8.258;2024-03-29T08:17:40;1.92;;;0.85;;
85980;SDS011;76553;50.982;8.258;2024-03-29T08:20:05;1.50;;;0.90;;
85980;SDS011;76553;50.982;8.258;2024-03-29T08:22:31;3.60;;;0.93;;
85980;SDS011;76553;50.982;8.258;2024-03-29T08:24:58;2.40;;;0.90;;
85980;SDS011;76553;50.982;8.258;2024-03-29T08:27:24;1.77;;;0.75;;
85980;SDS011;76553;50.982;8.258;2024-03-29T08:29:50;2.77;;;1.17;;
85980;SDS011;76553;50.982;8.258;2024-03-29T08:32:15;1.50;;;0.90;;
85980;SDS011;76553;50.982;8.258;2024-03-29T08:34:41;1.58;;;0.80;;
85980;SDS011;76553;50.982;8.258;2024-03-29T08:37:06;1.30;;;0.80;;
85980;SDS011;76553;50.982;8.258;2024-03-29T08:39:31;2.17;;;0.90;;
85980;SDS011;76553;50.982;8.258;2024-03-29T08:42:00;1.27;;;0.65;;
85980;SDS011;76553;50.982;8.258;2024-03-29T08:44:31;1.30;;;0.65;;
85980;SDS011;76553;50.982;8.258;2024-03-29T08:46:56;2.05;;;1.00;;
85980;SDS011;76553;50.982;8.258;2024-03-29T08:49:23;1.40;;;0.80;;
85980;SDS011;76553;50.982;8.258;2024-03-29T08:51:49;1.85;;;0.63;;
85980;SDS011;76553;50.982;8.258;2024-03-29T08:54:14;1.90;;;0.80;;
85980;SDS011;76553;50.982;8.258;2024-03-29T08:56:39;1.33;;;0.80;;
85980;SDS011;76553;50.982;8.258;2024-03-29T08:59:05;1.90;;;0.80;;
85980;SDS011;76553;50.982;8.258;2024-03-29T09:01:36;1.02;;;0.50;;
85980;SDS011;76553;50.982;8.258;2024-03-29T09:04:02;1.90;;;0.82;;
85980;SDS011;76553;50.982;8.258;2024-03-29T09:06:28;1.60;;;0.63;;
85980;SDS011;76553;50.982;8.258;2024-03-29T09:08:54;1.80;;;0.88;;
85980;SDS011;76553;50.982;8.258;2024-03-29T09:11:19;2.10;;;0.73;;
85980;SDS011;76553;50.982;8.258;2024-03-29T09:13:44;1.40;;;0.70;;
85980;SDS011;76553;50.982;8.258;2024-03-29T09:16:09;2.50;;;1.10;;
85980;SDS011;76553;50.982;8.258;2024-03-29T09:18:35;3.10;;;0.90;;
85980;SDS011;76553;50.982;8.258;2024-03-29T09:21:00;1.50;;;0.70;;
85980;SDS011;76553;50.982;8.258;2024-03-29T09:23:26;3.35;;;0.90;;
85980;SDS011;76553;50.982;8.258;2024-03-29T09:25:55;1.73;;;0.80;;
85980;SDS011;76553;50.982;8.258;2024-03-29T09:28:22;2.67;;;0.95;;
85980;SDS011;76553;50.982;8.258;2024-03-29T09:30:48;2.78;;;1.10;;
85980;SDS011;76553;50.982;8.258;2024-03-29T09:33:14;2.25;;;0.93;;
85980;SDS011;76553;50.982;8.258;2024-03-29T09:35:39;1.80;;;0.98;;
85980;SDS011;76553;50.982;8.258;2024-03-29T09:38:04;3.30;;;0.87;;
85980;SDS011;76553;50.982;8.258;2024-03-29T09:40:30;1.90;;;0.80;;
85980;SDS011;76553;50.982;8.258;2024-03-29T09:42:56;2.95;;;0.85;;
85980;SDS011;76553;50.982;8.258;2024-03-29T09:45:29;2.25;;;0.90;;
85980;SDS011;76553;50.982;8.258;2024-03-29T09:47:57;3.88;;;1.20;;
85980;SDS011;76553;50.982;8.258;2024-03-29T09:50:25;2.67;;;0.90;;
85980;SDS011;76553;50.982;8.258;2024-03-29T09:52:50;1.42;;;0.70;;
85980;SDS011;76553;50.982;8.258;2024-03-29T09:55:18;2.20;;;0.85;;
85980;SDS011;76553;50.982;8.258;2024-03-29T09:57:45;1.83;;;0.95;;
85980;SDS011;76553;50.982;8.258;2024-03-29T10:00:10;1.97;;;0.80;;
85980;SDS011;76553;50.982;8.258;2024-03-29T10:02:36;2.33;;;0.68;;
85980;SDS011;76553;50.982;8.258;2024-03-29T10:05:02;2.90;;;0.80;;
85980;SDS011;76553;50.982;8.258;2024-03-29T10:07:31;1.17;;;0.60;;
85980;SDS011;76553;50.982;8.258;2024-03-29T10:09:59;1.98;;;0.80;;
85980;SDS011;76553;50.982;8.258;2024-03-29T10:12:25;1.42;;;0.82;;
85980;SDS011;76553;50.982;8.258;2024-03-29T10:14:52;1.35;;;0.77;;
85980;SDS011;76553;50.982;8.258;2024-03-29T10:17:30;1.95;;;0.90;;
85980;SDS011;76553;50.982;8.258;2024-03-29T10:19:58;2.13;;;0.85;;
85980;SDS011;76553;50.982;8.258;2024-03-29T10:22:25;2.70;;;0.90;;
85980;SDS011;76553;50.982;8.258;2024-03-29T10:24:50;1.27;;;0.70;;
85980;SDS011;76553;50.982;8.258;2024-03-29T10:27:16;1.20;;;0.70;;
85980;SDS011;76553;50.982;8.258;2024-03-29T10:29:41;1.67;;;0.75;;
85980;SDS011;76553;50.982;8.258;2024-03-29T10:32:06;1.37;;;0.73;;
85980;SDS011;76553;50.982;8.258;2024-03-29T10:34:31;3.33;;;0.90;;
85980;SDS011;76553;50.982;8.258;2024-03-29T10:37:01;4.07;;;1.10;;
85980;SDS011;76553;50.982;8.258;2024-03-29T10:39:28;3.08;;;0.85;;
85980;SDS011;76553;50.982;8.258;2024-03-29T10:41:54;4.10;;;1.17;;
85980;SDS011;76553;50.982;8.258;2024-03-29T10:44:21;3.08;;;0.80;;
85980;SDS011;76553;50.982;8.258;2024-03-29T10:46:48;2.65;;;0.90;;
85980;SDS011;76553;50.982;8.258;2024-03-29T10:49:15;2.45;;;0.95;;
85980;SDS011;76553;50.982;8.258;2024-03-29T10:51:42;2.30;;;1.00;;
85980;SDS011;76553;50.982;8.258;2024-03-29T10:54:08;2.13;;;0.90;;
85980;SDS011;76553;50.982;8.258;2024-03-29T10:56:35;2.05;;;0.80;;
85980;SDS011;76553;50.982;8.258;2024-03-29T10:59:12;2.25;;;0.80;;
85980;SDS011;76553;50.982;8.258;2024-03-29T11:01:48;1.70;;;0.90;;
85980;SDS011;76553;50.982;8.258;2024-03-29T11:04:22;2.20;;;0.85;;
85980;SDS011;76553;50.982;8.258;2024-03-29T11:06:54;2.15;;;0.80;;
85980;SDS011;76553;50.982;8.258;2024-03-29T11:09:24;2.22;;;0.88;;
85980;SDS011;76553;50.982;8.258;2024-03-29T11:11:54;1.77;;;0.90;;
85980;SDS011;76553;50.982;8.258;2024-03-29T11:14:23;1.27;;;0.75;;
85980;SDS011;76553;50.982;8.258;2024-03-29T11:17:07;2.65;;;1.17;;
85980;SDS011;76553;50.982;8.258;2024-03-29T11:19:32;2.78;;;0.82;;
85980;SDS011;76553;50.982;8.258;2024-03-29T11:21:58;1.30;;;0.80;;
85980;SDS011;76553;50.982;8.258;2024-03-29T11:24:24;1.45;;;0.90;;
85980;SDS011;76553;50.982;8.258;2024-03-29T11:30:22;2.25;;;0.85;;
85980;SDS011;76553;50.982;8.258;2024-03-29T11:36:56;4.90;;;0.90;;
85980;SDS011;76553;50.982;8.258;2024-03-29T11:42:44;1.92;;;0.90;;
85980;SDS011;76553;50.982;8.258;2024-03-29T11:52:54;1.85;;;1.00;;
85980;SDS011;76553;50.982;8.258;2024-03-29T11:59:16;2.55;;;1.00;;
85980;SDS011;76553;50.982;8.258;2024-03-29T12:01:41;2.60;;;0.77;;
85980;SDS011;76553;50.982;8.258;2024-03-29T12:04:07;2.88;;;1.10;;
85980;SDS011;76553;50.982;8.258;2024-03-29T12:06:32;3.10;;;0.90;;
85980;SDS011;76553;50.982;8.258;2024-03-29T12:08:57;2.27;;;1.20;;
85980;SDS011;76553;50.982;8.258;2024-03-29T12:11:23;2.08;;;1.05;;
85980;SDS011;76553;50.982;8.258;2024-03-29T12:13:52;2.42;;;1.17;;
85980;SDS011;76553;50.982;8.258;2024-03-29T12:16:17;3.37;;;1.37;;
85980;SDS011;76553;50.982;8.258;2024-03-29T12:18:46;1.83;;;1.10;;
85980;SDS011;76553;50.982;8.258;2024-03-29T12:21:11;2.88;;;1.40;;
85980;SDS011;76553;50.982;8.258;2024-03-29T12:23:40;2.20;;;1.20;;
85980;SDS011;76553;50.982;8.258;2024-03-29T12:26:12;3.45;;;1.33;;
85980;SDS011;76553;50.982;8.258;2024-03-29T12:28:37;3.38;;;1.25;;
85980;SDS011;76553;50.982;8.258;2024-03-29T12:31:03;2.60;;;1.40;;
85980;SDS011;76553;50.982;8.258;2024-03-29T12:33:29;1.77;;;1.00;;
85980;SDS011;76553;50.982;8.258;2024-03-29T12:35:55;3.40;;;1.17;;
85980;SDS011;76553;50.982;8.258;2024-03-29T12:38:22;2.58;;;1.10;;
85980;SDS011;76553;50.982;8.258;2024-03-29T12:40:48;2.50;;;1.30;;
85980;SDS011;76553;50.982;8.258;2024-03-29T12:43:21;2.30;;;1.15;;
85980;SDS011;76553;50.982;8.258;2024-03-29T12:45:48;2.08;;;1.27;;
85980;SDS011;76553;50.982;8.258;2024-03-29T12:50:41;3.08;;;1.40;;
85980;SDS011;76553;50.982;8.258;2024-03-29T12:53:09;2.80;;;1.40;;
85980;SDS011;76553;50.982;8.258;2024-03-29T12:55:36;2.58;;;1.10;;
85980;SDS011;76553;50.982;8.258;2024-03-29T12:58:04;3.58;;;1.30;;
85980;SDS011;76553;50.982;8.258;2024-03-29T13:00:34;2.45;;;1.20;;
85980;SDS011;76553;50.982;8.258;2024-03-29T13:03:00;3.00;;;1.35;;
85980;SDS011;76553;50.982;8.258;2024-03-29T13:05:26;2.92;;;1.20;;
85980;SDS011;76553;50.982;8.258;2024-03-29T13:07:52;3.08;;;1.10;;
85980;SDS011;76553;50.982;8.258;2024-03-29T13:10:18;3.13;;;1.42;;
85980;SDS011;76553;50.982;8.258;2024-03-29T13:12:46;2.33;;;1.20;;
85980;SDS011;76553;50.982;8.258;2024-03-29T13:15:24;1.45;;;0.90;;
85980;SDS011;76553;50.982;8.258;2024-03-29T13:17:52;2.83;;;1.08;;
85980;SDS011;76553;50.982;8.258;2024-03-29T13:20:19;2.00;;;1.20;;
85980;SDS011;76553;50.982;8.258;2024-03-29T13:22:45;2.67;;;1.08;;
85980;SDS011;76553;50.982;8.258;2024-03-29T13:25:13;1.77;;;1.02;;
85980;SDS011;76553;50.982;8.258;2024-03-29T13:27:40;2.47;;;1.17;;
85980;SDS011;76553;50.982;8.258;2024-03-29T13:30:06;2.30;;;1.00;;
85980;SDS011;76553;50.982;8.258;2024-03-29T13:32:34;1.60;;;1.02;;
85980;SDS011;76553;50.982;8.258;2024-03-29T13:35:00;2.50;;;1.02;;
85980;SDS011;76553;50.982;8.258;2024-03-29T13:37:26;1.83;;;1.00;;
85980;SDS011;76553;50.982;8.258;2024-03-29T13:39:52;2.05;;;1.10;;
85980;SDS011;76553;50.982;8.258;2024-03-29T13:42:18;1.73;;;0.95;;
85980;SDS011;76553;50.982;8.258;2024-03-29T13:44:44;2.42;;;1.30;;
85980;SDS011;76553;50.982;8.258;2024-03-29T13:47:10;2.80;;;1.50;;
85980;SDS011;76553;50.982;8.258;2024-03-29T13:49:41;2.58;;;1.30;;
85980;SDS011;76553;50.982;8.258;2024-03-29T13:52:07;2.22;;;0.90;;
85980;SDS011;76553;50.982;8.258;2024-03-29T13:54:33;1.90;;;1.05;;
85980;SDS011;76553;50.982;8.258;2024-03-29T13:56:59;2.40;;;1.00;;
85980;SDS011;76553;50.982;8.258;2024-03-29T13:59:24;1.58;;;0.98;;
85980;SDS011;76553;50.982;8.258;2024-03-29T14:01:50;1.80;;;1.00;;
85980;SDS011;76553;50.982;8.258;2024-03-29T14:04:15;2.53;;;0.90;;
85980;SDS011;76553;50.982;8.258;2024-03-29T14:06:40;1.60;;;0.80;;
85980;SDS011;76553;50.982;8.258;2024-03-29T14:09:06;2.90;;;0.98;;
85980;SDS011;76553;50.982;8.258;2024-03-29T14:11:32;1.90;;;0.90;;
85980;SDS011;76553;50.982;8.258;2024-03-29T14:13:57;1.02;;;0.70;;
85980;SDS011;76553;50.982;8.258;2024-03-29T14:16:23;2.80;;;1.05;;
85980;SDS011;76553;50.982;8.258;2024-03-29T14:18:49;1.47;;;0.90;;
85980;SDS011;76553;50.982;8.258;2024-03-29T14:21:14;3.43;;;0.90;;
85980;SDS011;76553;50.982;8.258;2024-03-29T14:23:39;1.73;;;0.97;;
85980;SDS011;76553;50.982;8.258;2024-03-29T14:26:05;2.60;;;1.00;;
85980;SDS011;76553;50.982;8.258;2024-03-29T14:28:30;2.10;;;1.00;;
85980;SDS011;76553;50.982;8.258;2024-03-29T14:30:55;2.07;;;1.00;;
85980;SDS011;76553;50.982;8.258;2024-03-29T14:33:21;1.63;;;1.00;;
85980;SDS011;76553;50.982;8.258;2024-03-29T14:35:46;2.05;;;1.20;;
85980;SDS011;76553;50.982;8.258;2024-03-29T14:38:13;1.95;;;1.20;;
85980;SDS011;76553;50.982;8.258;2024-03-29T14:40:39;2.30;;;0.90;;
85980;SDS011;76553;50.982;8.258;2024-03-29T14:43:04;2.60;;;1.10;;
85980;SDS011;76553;50.982;8.258;2024-03-29T14:45:30;1.63;;;1.00;;
85980;SDS011;76553;50.982;8.258;2024-03-29T14:47:56;2.33;;;1.08;;
85980;SDS011;76553;50.982;8.258;2024-03-29T14:50:21;1.40;;;0.80;;
85980;SDS011;76553;50.982;8.258;2024-03-29T14:52:46;2.25;;;1.05;;
85980;SDS011;76553;50.982;8.258;2024-03-29T14:55:12;2.17;;;1.17;;
85980;SDS011;76553;50.982;8.258;2024-03-29T14:57:38;1.70;;;1.08;;
85980;SDS011;76553;50.982;8.258;2024-03-29T15:00:03;2.60;;;1.08;;
85980;SDS011;76553;50.982;8.258;2024-03-29T15:02:29;1.20;;;0.85;;
85980;SDS011;76553;50.982;8.258;2024-03-29T15:04:55;2.07;;;1.17;;
85980;SDS011;76553;50.982;8.258;2024-03-29T15:07:20;1.95;;;0.98;;
85980;SDS011;76553;50.982;8.258;2024-03-29T15:09:48;1.40;;;0.87;;
85980;SDS011;76553;50.982;8.258;2024-03-29T15:12:15;2.40;;;0.95;;
85980;SDS011;76553;50.982;8.258;2024-03-29T15:14:40;2.80;;;1.20;;